Strang, Oklahoma
Current Conditions -  °F | °C
As of 2:35 AM on Monday 24 Nov 2014 (Local Time) from KGCM Reporting Station
Clear Clear  
Wind Chill:   Ceiling: Unl
Heat Index:   Visibility: 10mi
Dew Point:   Wind: 9mph
Humidity: 87%   Direction: 290°WNW
Pressure: 29.77"   Gusts: NA
Location:  36.41°N, 95.13°W
Report Text: KGCM 240835Z AUTO 29008KT 10SM CLR 04/02 A2977 RMK AO2
Loading
Personal Weather Stations






























Interactive Weather Map New forecast layout! Learn more

10-Day Weather Forecast

Advertisements
Track Severe Weather on mobile